Time;durP1;ratioP1;P1;durP2;ratioP2;P2;SDS_P1;SDS_P2;PMS_P1;PMS_P2;Temp;Humidity;BMP_temperature;BMP_pressure;BME280_temperature;BME280_humidity;BME280_pressure;Samples;Min_cycle;Max_cycle;Signal;HPM_P1;HPM_P2
2021/05/09 00:00:45;;;;;;;5.00;2.80;;;;;;;4.69;88.57;99217.41;1797975;79;21151;-58
2021/05/09 00:03:12;;;;;;;5.37;2.70;;;;;;;4.70;88.46;99222.98;1797803;80;21273;-58
2021/05/09 00:05:40;;;;;;;4.78;2.87;;;;;;;4.70;88.36;99215.72;1797949;79;21170;-58
2021/05/09 00:08:08;;;;;;;6.45;3.40;;;;;;;4.69;88.24;99217.41;1798120;79;21143;-57
2021/05/09 00:10:36;;;;;;;4.95;2.90;;;;;;;4.69;88.16;99221.66;1797721;79;21151;-57
2021/05/09 00:13:04;;;;;;;5.70;2.75;;;;;;;4.70;88.05;99224.67;1798017;80;21139;-56
2021/05/09 00:15:32;;;;;;;4.58;2.52;;;;;;;4.68;88.02;99217.34;1797898;79;21111;-57
2021/05/09 00:18:00;;;;;;;5.50;2.83;;;;;;;4.68;87.90;99224.63;1800591;78;21324;-57
2021/05/09 00:20:27;;;;;;;7.10;3.15;;;;;;;4.68;87.87;99225.91;1818365;78;21311;-57
2021/05/09 00:22:55;;;;;;;6.12;3.12;;;;;;;4.65;87.91;99230.87;1807372;79;21140;-59
2021/05/09 00:25:23;;;;;;;5.70;3.12;;;;;;;4.60;88.03;99231.52;1806513;79;21303;-59
2021/05/09 00:27:51;;;;;;;6.15;2.65;;;;;;;4.57;88.10;99228.02;1817440;79;21161;-56
2021/05/09 00:30:19;;;;;;;3.85;2.47;;;;;;;4.53;88.20;99227.45;1801769;79;21282;-57
2021/05/09 00:32:47;;;;;;;5.87;2.95;;;;;;;4.51;88.31;99232.91;1799038;79;21164;-56
2021/05/09 00:35:15;;;;;;;8.68;3.25;;;;;;;4.49;88.42;99235.80;1798830;79;21147;-57
2021/05/09 00:37:43;;;;;;;6.17;2.90;;;;;;;4.44;88.54;99236.03;1799064;79;21286;-58
2021/05/09 00:40:12;;;;;;;6.53;2.95;;;;;;;4.43;88.53;99244.93;1799141;79;21116;-59
2021/05/09 00:42:40;;;;;;;4.97;3.00;;;;;;;4.42;88.58;99240.61;1799107;79;21578;-58
2021/05/09 00:45:09;;;;;;;4.97;2.67;;;;;;;4.41;88.66;99243.58;1798954;79;21183;-58
2021/05/09 00:47:36;;;;;;;6.47;2.90;;;;;;;4.40;88.74;99249.52;1799034;79;21559;-59
2021/05/09 00:50:06;;;;;;;8.53;3.10;;;;;;;4.40;88.84;99255.91;1799258;79;21167;-56
2021/05/09 00:52:39;;;;;;;4.87;2.83;;;;;;;4.41;88.97;99255.48;1799139;79;21270;-56
2021/05/09 00:55:11;;;;;;;5.08;2.77;;;;;;;4.38;89.12;99250.27;1798959;80;21155;-57
2021/05/09 00:57:41;;;;;;;7.12;3.08;;;;;;;4.31;89.21;99255.11;1796266;79;21222;-57
2021/05/09 01:00:13;;;;;;;4.53;2.83;;;;;;;4.23;89.47;99253.93;1799293;79;21148;-58
2021/05/09 01:02:43;;;;;;;5.33;3.17;;;;;;;4.16;89.56;99261.28;1798952;79;21292;-57
2021/05/09 01:05:13;;;;;;;6.92;3.77;;;;;;;4.13;89.79;99262.03;1798941;79;21150;-56
2021/05/09 01:07:42;;;;;;;6.90;3.20;;;;;;;4.10;89.99;99265.33;1798961;79;21108;-56
2021/05/09 01:10:13;;;;;;;5.67;2.60;;;;;;;4.06;90.25;99257.06;1799058;80;21290;-57
2021/05/09 01:12:42;;;;;;;8.20;3.70;;;;;;;4.00;90.42;99259.78;1799110;79;21681;-56
2021/05/09 01:15:12;;;;;;;6.03;3.08;;;;;;;3.95;90.62;99266.38;1798945;79;21144;-58
2021/05/09 01:17:40;;;;;;;5.17;3.15;;;;;;;3.88;90.76;99271.20;1799176;79;21566;-55
2021/05/09 01:20:16;;;;;;;5.00;2.83;;;;;;;3.86;90.93;99269.39;1798097;79;21156;-57
2021/05/09 01:22:45;;;;;;;4.70;2.90;;;;;;;3.83;91.06;99276.93;1798015;79;21235;-56
2021/05/09 01:25:13;;;;;;;5.17;3.25;;;;;;;3.84;91.18;99281.22;1797862;80;21129;-55
2021/05/09 01:27:42;;;;;;;5.67;3.45;;;;;;;3.84;91.23;99279.94;1798114;78;21799;-56
2021/05/09 01:30:12;;;;;;;4.87;3.17;;;;;;;3.84;91.31;99280.84;1798112;80;21263;-58
2021/05/09 01:32:40;;;;;;;6.05;3.00;;;;;;;3.82;91.34;99281.58;1797824;79;21148;-58
2021/05/09 01:35:10;;;;;;;4.80;3.20;;;;;;;3.78;91.38;99287.34;1798058;80;21113;-57
2021/05/09 01:37:39;;;;;;;5.00;3.05;;;;;;;3.76;91.51;99283.85;1797809;80;21133;-59
2021/05/09 01:40:11;;;;;;;8.45;3.08;;;;;;;3.73;91.53;99285.87;1797850;79;21148;-59
2021/05/09 01:42:40;;;;;;;4.65;2.83;;;;;;;3.73;91.66;99288.83;1797940;79;21295;-57
2021/05/09 01:45:10;;;;;;;5.75;2.98;;;;;;;3.70;91.64;99286.61;1797808;80;21132;-57
2021/05/09 01:47:38;;;;;;;5.78;3.40;;;;;;;3.69;91.69;99296.36;1797894;78;21141;-57
2021/05/09 01:50:13;;;;;;;6.83;3.47;;;;;;;3.65;91.64;99291.05;1798431;78;21105;-57
2021/05/09 01:52:42;;;;;;;6.25;3.47;;;;;;;3.63;91.66;99301.59;1809879;78;21176;-57
2021/05/09 01:55:15;;;;;;;5.40;3.50;;;;;;;3.59;91.66;99299.31;1813259;78;21149;-57
2021/05/09 01:57:46;;;;;;;5.47;3.12;;;;;;;3.57;91.73;99294.55;1797718;80;21357;-55
2021/05/09 02:00:19;;;;;;;4.85;2.72;;;;;;;3.55;91.80;99306.77;1797885;80;21199;-56
2021/05/09 02:02:49;;;;;;;5.22;3.40;;;;;;;3.56;91.77;99303.39;1797304;78;21093;-56
2021/05/09 02:05:19;;;;;;;6.20;3.50;;;;;;;3.56;91.72;99308.13;1797765;79;21160;-57
2021/05/09 02:07:47;;;;;;;5.53;3.75;;;;;;;3.57;91.69;99314.96;1797758;80;21144;-58
2021/05/09 02:10:16;;;;;;;7.22;3.55;;;;;;;3.58;91.63;99312.86;1800177;78;21666;-57
2021/05/09 02:12:44;;;;;;;7.28;3.22;;;;;;;3.59;91.71;99318.46;1833609;78;21153;-59
2021/05/09 02:15:14;;;;;;;6.50;3.35;;;;;;;3.59;91.76;99321.02;1833621;78;21161;-58
2021/05/09 02:17:43;;;;;;;5.87;3.17;;;;;;;3.60;91.75;99325.70;1818123;78;21154;-56
2021/05/09 02:20:15;;;;;;;8.00;3.45;;;;;;;3.59;91.74;99326.11;1811342;78;21279;-55
2021/05/09 02:22:44;;;;;;;8.25;3.55;;;;;;;3.58;91.68;99328.58;1800607;79;21161;-56
2021/05/09 02:25:12;;;;;;;6.70;3.10;;;;;;;3.55;91.71;99333.56;1785426;80;21342;-57
2021/05/09 02:27:42;;;;;;;6.10;3.60;;;;;;;3.50;91.79;99338.45;1785092;80;21371;-58
2021/05/09 02:30:11;;;;;;;6.62;3.58;;;;;;;3.45;91.90;99334.81;1785413;80;21153;-56
2021/05/09 02:32:39;;;;;;;9.10;3.83;;;;;;;3.44;91.96;99338.19;1785243;80;21153;-58
2021/05/09 02:35:08;;;;;;;4.75;3.05;;;;;;;3.45;91.98;99345.02;1785507;80;21230;-56
2021/05/09 02:37:36;;;;;;;5.90;3.20;;;;;;;3.47;91.93;99351.08;1785374;80;21174;-56
2021/05/09 02:40:06;;;;;;;5.45;3.45;;;;;;;3.49;91.91;99354.58;1785411;80;21157;-58
2021/05/09 02:42:35;;;;;;;5.20;3.20;;;;;;;3.49;91.86;99353.30;1785240;80;21150;-56
2021/05/09 02:45:06;;;;;;;5.80;3.90;;;;;;;3.50;91.83;99354.17;1785420;80;21185;-57
2021/05/09 02:47:34;;;;;;;5.80;3.62;;;;;;;3.51;91.84;99364.83;1785428;80;21157;-55
2021/05/09 02:50:10;;;;;;;5.03;3.17;;;;;;;3.54;91.81;99367.55;1785204;80;21308;-57
2021/05/09 02:52:40;;;;;;;11.05;4.15;;;;;;;3.57;91.71;99368.95;1785472;80;21639;-57
2021/05/09 02:55:10;;;;;;;7.67;3.75;;;;;;;3.55;91.60;99372.70;1785506;80;21185;-56
2021/05/09 02:57:39;;;;;;;8.38;3.47;;;;;;;3.57;91.58;99379.16;1756974;80;21177;-58
2021/05/09 03:00:08;;;;;;;6.67;4.08;;;;;;;3.55;91.61;99383.31;1785332;80;21146;-55
2021/05/09 03:02:37;;;;;;;6.17;3.62;;;;;;;3.54;91.62;99390.52;1785633;80;21560;-57
2021/05/09 03:05:08;;;;;;;5.50;3.52;;;;;;;3.54;91.70;99393.93;1785225;80;21141;-57
2021/05/09 03:07:36;;;;;;;6.05;3.70;;;;;;;3.57;91.67;99401.72;1757233;80;21707;-56
2021/05/09 03:10:06;;;;;;;10.48;3.52;;;;;;;3.61;91.60;99401.07;1785209;80;21288;-58
2021/05/09 03:12:34;;;;;;;6.37;3.50;;;;;;;3.62;91.48;99406.63;1785465;80;21122;-57
2021/05/09 03:15:05;;;;;;;7.28;3.27;;;;;;;3.62;91.55;99410.87;1785477;80;21308;-59
2021/05/09 03:17:33;;;;;;;6.22;3.90;;;;;;;3.65;91.50;99416.11;1785467;80;21691;-58
2021/05/09 03:20:01;;;;;;;5.37;3.52;;;;;;;3.63;91.42;99417.30;1785490;80;21280;-59
2021/05/09 03:22:28;;;;;;;6.62;3.58;;;;;;;3.68;91.47;99420.06;1797852;78;21160;-56
2021/05/09 03:24:57;;;;;;;6.40;3.25;;;;;;;3.73;91.43;99422.83;1797941;80;21282;-57
2021/05/09 03:27:25;;;;;;;8.43;3.55;;;;;;;3.82;91.36;99429.64;1797929;80;21229;-56
2021/05/09 03:29:52;;;;;;;5.37;3.40;;;;;;;3.90;91.12;99437.23;1798008;80;21259;-57
2021/05/09 03:32:20;;;;;;;6.25;3.80;;;;;;;3.96;90.97;99433.67;1797717;80;21141;-55
2021/05/09 03:34:50;;;;;;;6.40;3.83;;;;;;;3.97;90.66;99436.72;1798084;79;21535;-60
2021/05/09 03:37:18;;;;;;;6.53;3.75;;;;;;;3.98;90.59;99435.89;1797697;79;21136;-56
2021/05/09 03:39:45;;;;;;;4.83;3.67;;;;;;;4.03;90.43;99443.36;1797872;80;21132;-57
2021/05/09 03:42:13;;;;;;;5.03;3.50;;;;;;;4.09;90.37;99438.51;1797932;79;21291;-59
2021/05/09 03:44:40;;;;;;;5.90;3.80;;;;;;;4.11;90.09;99443.29;1797974;79;21102;-60
2021/05/09 03:47:08;;;;;;;7.95;4.12;;;;;;;4.19;89.95;99450.42;1798018;80;21263;-57
2021/05/09 03:49:36;;;;;;;7.75;4.50;;;;;;;4.24;89.67;99447.66;1797713;79;21129;-56
2021/05/09 03:52:04;;;;;;;7.62;3.85;;;;;;;4.29;89.64;99452.57;1797888;79;21144;-58
2021/05/09 03:54:32;;;;;;;6.50;4.10;;;;;;;4.34;89.37;99454.92;1797780;80;21109;-57
2021/05/09 03:57:00;;;;;;;6.78;3.90;;;;;;;4.38;89.27;99450.43;1797873;80;21187;-58
2021/05/09 03:59:27;;;;;;;9.00;4.12;;;;;;;4.41;88.87;99458.22;1797919;80;21275;-56
2021/05/09 04:01:56;;;;;;;7.58;3.65;;;;;;;4.45;88.73;99463.95;1790292;80;21149;-58
2021/05/09 04:04:24;;;;;;;7.08;3.80;;;;;;;4.48;88.47;99466.63;1797984;80;21121;-57
2021/05/09 04:06:52;;;;;;;6.72;3.65;;;;;;;4.50;88.29;99470.51;1798010;80;21141;-57
2021/05/09 04:09:20;;;;;;;5.87;3.90;;;;;;;4.54;88.32;99471.12;1797945;80;21288;-57
2021/05/09 04:11:47;;;;;;;7.75;3.42;;;;;;;4.61;88.08;99465.88;1797899;80;21379;-58
2021/05/09 04:14:16;;;;;;;6.87;4.22;;;;;;;4.70;87.88;99473.92;1797941;79;21156;-59
2021/05/09 04:16:44;;;;;;;8.10;4.12;;;;;;;4.79;87.75;99468.80;1797946;80;21109;-64
2021/05/09 04:19:13;;;;;;;6.40;4.78;;;;;;;4.90;87.45;99478.19;1797995;80;21266;-59
2021/05/09 04:21:41;;;;;;;7.33;4.35;;;;;;;4.98;87.19;99475.95;1797056;79;21141;-58
2021/05/09 04:24:10;;;;;;;6.65;4.15;;;;;;;5.06;86.77;99478.82;1820886;79;21569;-56
2021/05/09 04:26:37;;;;;;;6.42;4.03;;;;;;;5.12;86.50;99485.48;1820792;78;21147;-54
2021/05/09 04:29:05;;;;;;;8.35;4.37;;;;;;;5.21;86.34;99490.95;1820876;79;21210;-59
2021/05/09 04:31:33;;;;;;;6.45;3.60;;;;;;;5.29;85.96;99488.33;1820703;79;21151;-60
2021/05/09 04:34:00;;;;;;;8.08;4.47;;;;;;;5.38;85.85;99495.48;1820866;79;21135;-57
2021/05/09 04:36:28;;;;;;;9.08;4.47;;;;;;;5.46;85.34;99495.80;1820901;79;21128;-58
2021/05/09 04:38:58;;;;;;;6.83;4.28;;;;;;;5.55;85.15;99498.73;1786104;80;21147;-57
2021/05/09 04:41:26;;;;;;;5.80;3.67;;;;;;;5.60;84.53;99507.05;1794588;80;21162;-60
2021/05/09 04:43:53;;;;;;;8.80;4.17;;;;;;;5.65;84.08;99510.66;1794849;80;21373;-59
2021/05/09 04:46:21;;;;;;;7.65;3.98;;;;;;;5.72;83.94;99514.73;1794770;80;21135;-59
2021/05/09 04:48:48;;;;;;;8.98;5.25;;;;;;;5.78;83.61;99516.27;1787021;80;21313;-59
2021/05/09 04:51:16;;;;;;;5.87;3.60;;;;;;;5.86;83.66;99524.70;1794677;80;21111;-59
2021/05/09 04:53:43;;;;;;;6.40;3.85;;;;;;;6.02;83.47;99531.31;1820791;79;21282;-58
2021/05/09 04:56:11;;;;;;;6.92;4.10;;;;;;;6.16;83.14;99532.27;1821006;79;21143;-60
2021/05/09 04:58:41;;;;;;;6.08;3.72;;;;;;;6.25;82.87;99537.30;1820823;79;21147;-58
2021/05/09 05:01:12;;;;;;;7.37;4.12;;;;;;;6.39;82.56;99544.66;1820752;79;21285;-57
2021/05/09 05:03:40;;;;;;;5.42;3.42;;;;;;;6.48;82.24;99542.41;1820711;79;21293;-58
2021/05/09 05:06:08;;;;;;;7.03;4.25;;;;;;;6.60;81.97;99553.13;1820747;79;21315;-59
2021/05/09 05:08:35;;;;;;;8.48;3.80;;;;;;;6.70;81.46;99539.81;1821066;79;21301;-60
2021/05/09 05:11:07;;;;;;;6.17;4.12;;;;;;;6.85;80.69;99539.90;1821088;79;21301;-58
2021/05/09 05:13:37;;;;;;;9.60;3.98;;;;;;;7.03;80.28;99549.51;1820977;79;21277;-58
2021/05/09 05:16:07;;;;;;;7.03;3.90;;;;;;;7.20;80.06;99552.66;1820848;79;21120;-59
2021/05/09 05:18:37;;;;;;;5.97;3.62;;;;;;;7.38;79.18;99550.70;1820891;79;21181;-58
2021/05/09 05:21:05;;;;;;;6.03;3.70;;;;;;;7.59;78.43;99544.52;1820830;79;21304;-59
2021/05/09 05:23:37;;;;;;;8.65;3.80;;;;;;;7.79;77.46;99546.44;1820740;79;21159;-58
2021/05/09 05:26:05;;;;;;;9.43;4.00;;;;;;;8.04;75.96;99551.51;1821105;78;21379;-59
2021/05/09 05:28:33;;;;;;;6.55;3.80;;;;;;;9.26;73.55;99547.19;1821125;79;21151;-58
2021/05/09 05:31:01;;;;;;;6.50;3.00;;;;;;;11.14;68.80;99552.18;1821078;79;21151;-60
2021/05/09 05:33:34;;;;;;;4.70;2.50;;;;;;;12.97;59.95;99560.90;1821015;79;21104;-60
2021/05/09 05:36:05;;;;;;;4.92;2.67;;;;;;;14.15;53.53;99561.09;1821089;79;21155;-58
2021/05/09 05:38:33;;;;;;;5.25;2.60;;;;;;;14.70;51.46;99571.33;1820896;79;21715;-60
2021/05/09 05:41:01;;;;;;;6.22;2.60;;;;;;;15.80;48.27;99570.71;1820996;79;21282;-57
2021/05/09 05:43:31;;;;;;;5.12;2.50;;;;;;;16.94;45.66;99566.49;1820891;79;21270;-60
2021/05/09 05:46:01;;;;;;;4.00;2.22;;;;;;;17.85;42.64;99576.34;1820918;79;21172;-59
2021/05/09 05:48:29;;;;;;;4.62;1.92;;;;;;;18.04;41.08;99587.06;1820949;79;21175;-61
2021/05/09 05:50:58;;;;;;;6.15;2.08;;;;;;;18.47;39.88;99577.89;1821240;79;21573;-60
2021/05/09 05:53:28;;;;;;;3.22;1.90;;;;;;;19.38;37.57;99580.23;1821054;79;21151;-60
2021/05/09 05:55:57;;;;;;;4.05;2.10;;;;;;;19.38;37.57;99580.23;1821078;79;21139;-59
2021/05/09 05:58:25;;;;;;;3.85;1.85;;;;;;;19.52;36.53;99583.52;1820969;79;21146;-60
2021/05/09 06:00:52;;;;;;;3.70;1.80;;;;;;;19.90;36.81;99588.61;1820835;79;21294;-58
2021/05/09 06:03:22;;;;;;;4.08;1.90;;;;;;;20.94;34.38;99589.69;1820818;79;21127;-60
2021/05/09 06:05:49;;;;;;;4.20;2.33;;;;;;;21.57;33.29;99593.56;1821085;79;21116;-58
2021/05/09 06:08:18;;;;;;;3.92;2.00;;;;;;;21.27;32.24;99596.41;1820803;79;21107;-57
2021/05/09 06:10:46;;;;;;;3.47;1.65;;;;;;;20.78;32.62;99603.13;1821099;79;21289;-60
2021/05/09 06:13:14;;;;;;;6.00;1.95;;;;;;;20.86;32.77;99605.59;1821022;79;21297;-60
2021/05/09 06:15:42;;;;;;;2.75;1.55;;;;;;;21.56;32.16;99606.30;1820779;79;21300;-60
2021/05/09 06:18:10;;;;;;;3.95;1.80;;;;;;;22.06;31.10;99618.66;1820927;79;21195;-62
2021/05/09 06:20:39;;;;;;;4.08;1.98;;;;;;;22.11;31.01;99616.31;1820752;78;21745;-58
2021/05/09 06:23:08;;;;;;;3.65;1.70;;;;;;;22.42;29.88;99618.63;1820831;79;21143;-60
2021/05/09 06:25:38;;;;;;;2.85;1.40;;;;;;;22.28;29.56;99617.66;1821057;79;21139;-58
2021/05/09 06:28:06;;;;;;;3.37;1.42;;;;;;;22.40;29.60;99617.80;1820793;79;21139;-60
2021/05/09 06:30:35;;;;;;;2.60;1.30;;;;;;;22.70;29.73;99622.21;1821070;79;21143;-60
2021/05/09 06:33:02;;;;;;;2.10;1.40;;;;;;;23.40;28.30;99632.45;1821001;79;21157;-59
2021/05/09 06:35:36;;;;;;;3.47;1.45;;;;;;;23.82;27.79;99615.38;1820761;79;21143;-61
2021/05/09 06:38:00;;;;;;;2.85;1.60;;;;;;;24.07;27.59;99623.34;1820407;79;21159;-59
2021/05/09 06:40:28;;;;;;;2.85;1.40;;;;;;;23.94;27.59;99628.16;1821049;78;21689;-60
2021/05/09 06:42:59;;;;;;;3.83;1.20;;;;;;;23.77;27.55;99634.44;1820784;78;21188;-59
2021/05/09 06:45:29;;;;;;;2.95;1.47;;;;;;;23.83;28.08;99623.22;1821093;79;21522;-61
2021/05/09 06:48:01;;;;;;;3.08;1.40;;;;;;;24.99;25.85;99630.64;1820912;79;21108;-61
2021/05/09 06:50:33;;;;;;;3.20;1.55;;;;;;;24.89;25.57;99635.39;1821040;79;21284;-60
2021/05/09 06:53:03;;;;;;;2.67;1.37;;;;;;;24.76;25.60;99630.17;1820912;79;21155;-60
2021/05/09 06:55:34;;;;;;;3.27;1.25;;;;;;;23.97;25.89;99638.59;1820751;78;21289;-61
2021/05/09 06:58:04;;;;;;;2.67;1.40;;;;;;;23.05;27.61;99633.54;1820908;79;21273;-59
2021/05/09 07:00:31;;;;;;;2.40;1.30;;;;;;;22.93;27.66;99639.12;1820875;78;21294;-60
2021/05/09 07:02:59;;;;;;;2.90;1.40;;;;;;;22.43;28.25;99636.11;1820973;79;21278;-59
2021/05/09 07:05:27;;;;;;;4.12;1.60;;;;;;;22.15;28.86;99632.00;1820875;78;21290;-60
2021/05/09 07:07:56;;;;;;;3.65;1.30;;;;;;;21.75;29.31;99634.29;1820928;79;21273;-60
2021/05/09 07:10:26;;;;;;;2.70;1.40;;;;;;;22.16;29.01;99640.28;1820926;78;21137;-60
2021/05/09 07:12:55;;;;;;;3.45;1.20;;;;;;;22.53;28.26;99640.22;1820992;79;21581;-60
2021/05/09 07:15:58;;;;;;;3.58;1.90;;;;;;;22.53;28.13;99633.65;1820923;79;21132;-60
2021/05/09 07:18:10;;;;;;;2.58;1.30;;;;;;;22.50;28.56;99637.69;1806236;79;21297;-62
2021/05/09 07:20:36;;;;;;;1.98;1.10;;;;;;;23.01;28.05;99641.11;1819703;79;21143;-60
2021/05/09 07:23:05;;;;;;;2.37;1.27;;;;;;;23.22;26.65;99632.16;1820872;79;21155;-61
2021/05/09 07:25:34;;;;;;;3.30;1.27;;;;;;;22.49;27.39;99645.14;1820821;79;21115;-60
2021/05/09 07:28:10;;;;;;;2.22;1.10;;;;;;;21.95;28.26;99641.23;1820742;79;21151;-59
2021/05/09 07:30:42;;;;;;;1.70;1.30;;;;;;;21.98;29.02;99649.07;1820708;79;21281;-61
2021/05/09 07:33:12;;;;;;;2.87;1.25;;;;;;;22.56;28.01;99644.08;1820724;79;21151;-58
2021/05/09 07:35:42;;;;;;;3.70;1.50;;;;;;;22.39;27.57;99645.87;1821123;79;21144;-60
2021/05/09 07:38:12;;;;;;;2.17;1.20;;;;;;;22.19;27.84;99651.64;1820862;79;21309;-61
2021/05/09 07:40:40;;;;;;;2.23;1.20;;;;;;;22.50;27.67;99655.64;1820955;79;21290;-58
2021/05/09 07:43:11;;;;;;;2.25;1.30;;;;;;;22.77;27.54;99659.75;1820398;79;21570;-59
2021/05/09 07:45:39;;;;;;;2.17;1.10;;;;;;;22.76;26.93;99655.38;1820780;79;21139;-61
2021/05/09 07:48:10;;;;;;;2.00;1.20;;;;;;;21.92;27.70;99649.20;1820896;79;21274;-61
2021/05/09 07:50:40;;;;;;;2.83;1.55;;;;;;;21.50;28.22;99642.77;1821097;79;21558;-61
2021/05/09 07:53:09;;;;;;;2.77;1.30;;;;;;;21.09;29.04;99648.86;1820705;79;21188;-59
2021/05/09 07:55:37;;;;;;;2.40;1.10;;;;;;;21.67;28.45;99652.86;1820872;79;21124;-59
2021/05/09 07:58:20;;;;;;;3.52;1.12;;;;;;;22.26;27.99;99650.58;1820955;79;21274;-61
2021/05/09 08:00:49;;;;;;;1.98;1.20;;;;;;;22.60;27.53;99651.00;1820680;79;21285;-60
2021/05/09 08:03:17;;;;;;;3.17;1.40;;;;;;;22.36;27.68;99649.02;1820671;79;21116;-59
2021/05/09 08:05:46;;;;;;;1.95;1.12;;;;;;;21.15;28.32;99641.73;1820956;79;21151;-61
2021/05/09 08:08:14;;;;;;;3.52;1.42;;;;;;;20.13;29.72;99648.48;1820760;79;21160;-59
2021/05/09 08:10:44;;;;;;;3.02;1.40;;;;;;;19.49;30.29;99646.39;1820618;79;21159;-61
2021/05/09 08:13:13;;;;;;;2.60;1.40;;;;;;;19.59;30.48;99647.10;1820760;78;21147;-59
2021/05/09 08:15:41;;;;;;;2.37;1.40;;;;;;;20.00;29.46;99625.55;1820657;79;21148;-61
2021/05/09 08:18:09;;;;;;;2.72;1.30;;;;;;;19.70;29.45;99644.78;1820836;79;21135;-62
2021/05/09 08:20:38;;;;;;;3.10;1.27;;;;;;;19.93;29.29;99629.16;1821029;79;21163;-60
2021/05/09 08:23:06;;;;;;;2.60;1.35;;;;;;;18.81;30.56;99641.17;1820593;79;21155;-57
2021/05/09 08:25:37;;;;;;;1.90;1.05;;;;;;;18.66;31.02;99635.19;1820687;78;21565;-59
2021/05/09 08:28:05;;;;;;;2.08;1.25;;;;;;;19.06;30.72;99656.13;1820902;79;21356;-60
2021/05/09 08:30:32;;;;;;;3.12;1.50;;;;;;;19.59;30.23;99651.92;1820815;79;21174;-60
2021/05/09 08:33:01;;;;;;;2.37;1.00;;;;;;;20.52;28.58;99639.02;1820677;79;21163;-61
2021/05/09 08:35:29;;;;;;;2.85;1.20;;;;;;;20.99;28.27;99639.89;1820889;79;21140;-61
2021/05/09 08:37:57;;;;;;;1.45;1.00;;;;;;;20.18;28.59;99634.84;1820627;79;21139;-59
2021/05/09 08:40:25;;;;;;;2.08;1.10;;;;;;;19.52;28.56;99639.34;1820706;79;21285;-58
2021/05/09 08:42:53;;;;;;;2.20;1.20;;;;;;;19.52;29.08;99635.87;1820794;79;21532;-59
2021/05/09 08:45:21;;;;;;;3.17;1.52;;;;;;;19.88;28.88;99632.30;1820666;79;21155;-59
2021/05/09 08:47:50;;;;;;;2.87;1.22;;;;;;;19.61;28.66;99637.47;1820975;79;21286;-60
2021/05/09 08:50:24;;;;;;;1.62;1.10;;;;;;;19.04;29.37;99629.11;1820658;79;21135;-66
2021/05/09 08:52:52;;;;;;;2.20;1.60;;;;;;;18.77;29.87;99631.16;1820987;79;21155;-59
2021/05/09 08:55:26;;;;;;;3.67;1.45;;;;;;;18.56;31.28;99648.38;1820668;79;21115;-59
2021/05/09 08:57:57;;;;;;;2.50;1.32;;;;;;;18.83;31.78;99640.27;1820558;79;21612;-61
2021/05/09 09:00:26;;;;;;;2.77;1.12;;;;;;;18.68;31.87;99652.17;1821044;79;21120;-59
2021/05/09 09:03:04;;;;;;;1.77;1.30;;;;;;;18.44;31.98;99655.48;1821171;79;21282;-60
2021/05/09 09:05:44;;;;;;;2.62;1.30;;;;;;;18.50;32.18;99648.45;1820882;79;21479;-60
2021/05/09 09:08:17;;;;;;;2.30;1.12;;;;;;;18.80;32.24;99649.46;1821112;79;21565;-60
2021/05/09 09:10:51;;;;;;;2.35;1.20;;;;;;;19.15;31.53;99644.22;1820792;79;21541;-59
2021/05/09 09:13:32;;;;;;;3.42;1.57;;;;;;;18.81;31.76;99646.39;1820811;78;21305;-58
2021/05/09 09:16:05;;;;;;;4.28;1.35;;;;;;;18.22;32.36;99644.80;1821069;79;21688;-59
2021/05/09 09:18:42;;;;;;;3.70;1.42;;;;;;;17.72;32.58;99649.51;1820882;79;21139;-59
2021/05/09 09:21:31;;;;;;;2.98;2.00;;;;;;;17.41;33.08;99650.16;1820825;79;21140;-60
2021/05/09 09:24:10;;;;;;;3.00;1.35;;;;;;;16.81;33.73;99641.28;1800506;78;21286;-59
2021/05/09 09:26:50;;;;;;;2.65;1.17;;;;;;;16.09;35.52;99638.80;1795236;78;21215;-58
2021/05/09 09:29:30;;;;;;;3.10;1.60;;;;;;;15.27;36.71;99635.22;1795190;79;21184;-59
2021/05/09 09:32:10;;;;;;;3.30;1.72;;;;;;;14.84;36.79;99645.45;1795088;80;21133;-60
2021/05/09 09:34:45;;;;;;;2.20;1.45;;;;;;;14.66;37.74;99652.73;1795008;79;21112;-59
2021/05/09 09:37:15;;;;;;;2.33;1.45;;;;;;;14.69;38.12;99650.14;1795157;78;21136;-62
2021/05/09 09:39:53;;;;;;;3.95;1.80;;;;;;;14.57;38.54;99640.11;1795273;78;21145;-60
2021/05/09 09:42:42;;;;;;;2.90;1.57;;;;;;;14.51;39.35;99659.96;1795277;80;21157;-61
2021/05/09 09:45:32;;;;;;;2.75;1.55;;;;;;;14.65;38.97;99647.52;1795092;78;21148;-59
2021/05/09 09:48:01;;;;;;;3.77;1.52;;;;;;;14.73;38.03;99651.02;1794659;80;21160;-60
2021/05/09 09:50:46;;;;;;;4.58;2.20;;;;;;;14.39;38.60;99636.95;1795048;79;21286;-60
2021/05/09 09:53:39;;;;;;;2.95;1.60;;;;;;;14.04;39.10;99644.94;1795056;78;21117;-60
2021/05/09 09:56:19;;;;;;;3.02;1.20;;;;;;;13.98;39.68;99652.66;1795198;78;21150;-57
2021/05/09 09:58:54;;;;;;;2.87;1.50;;;;;;;14.16;39.25;99653.66;1795130;78;21152;-59
2021/05/09 10:01:27;;;;;;;3.67;1.40;;;;;;;14.04;38.99;99642.34;1795352;80;21665;-61
2021/05/09 10:04:01;;;;;;;2.85;1.55;;;;;;;13.72;39.76;99643.36;1795340;80;21674;-59
2021/05/09 10:06:31;;;;;;;2.55;1.40;;;;;;;13.57;40.73;99645.38;1794966;80;21148;-58
2021/05/09 10:09:00;;;;;;;3.25;1.50;;;;;;;13.62;40.52;99660.55;1795030;78;21298;-59
2021/05/09 10:11:31;;;;;;;2.65;1.45;;;;;;;13.79;40.34;99659.42;1794968;79;21128;-58
2021/05/09 10:13:59;;;;;;;3.10;1.50;;;;;;;13.81;39.90;99655.53;1794952;78;21298;-59
2021/05/09 10:16:34;;;;;;;2.62;1.60;;;;;;;13.57;40.20;99646.67;1794938;78;21282;-59
2021/05/09 10:19:11;;;;;;;2.60;1.47;;;;;;;13.36;40.84;99665.91;1794989;78;21575;-59
2021/05/09 10:21:42;;;;;;;2.25;1.30;;;;;;;13.28;41.19;99667.52;1795127;78;21314;-58
2021/05/09 10:24:16;;;;;;;5.65;3.10;;;;;;;13.44;41.18;99665.56;1794918;78;21164;-58
2021/05/09 10:27:06;;;;;;;4.22;1.45;;;;;;;13.64;40.69;99667.06;1795135;78;21230;-58
2021/05/09 10:29:40;;;;;;;3.85;1.50;;;;;;;13.80;39.35;99681.05;1795188;79;21176;-60
2021/05/09 10:32:22;;;;;;;3.27;1.60;;;;;;;13.92;39.66;99672.48;1794941;78;21152;-60
2021/05/09 10:35:00;;;;;;;1.65;1.15;;;;;;;13.99;39.94;99663.50;1781959;78;21113;-59
2021/05/09 10:37:44;;;;;;;2.65;1.22;;;;;;;14.01;39.40;99653.97;1794845;79;21156;-60
2021/05/09 10:40:36;;;;;;;3.12;1.50;;;;;;;14.04;38.29;99664.41;1795125;80;21158;-59
2021/05/09 10:43:15;;;;;;;2.83;1.42;;;;;;;13.98;38.46;99624.55;1795208;80;21237;-60
2021/05/09 10:45:48;;;;;;;3.17;1.77;;;;;;;13.85;38.62;99676.77;1795303;79;21111;-59
2021/05/09 10:51:07;;;;;;;3.05;1.45;;;;;;;14.04;40.46;99678.67;1795237;78;21127;-59
2021/05/09 10:53:41;;;;;;;2.52;1.30;;;;;;;14.36;40.48;99676.74;1795335;80;21222;-59
2021/05/09 10:56:20;;;;;;;2.20;1.17;;;;;;;14.76;38.92;99664.05;1795240;78;21559;-59
2021/05/09 10:58:51;;;;;;;3.08;1.60;;;;;;;14.93;37.77;99655.91;1795196;79;21238;-59
2021/05/09 11:01:25;;;;;;;;;;;;;;;14.74;36.87;99642.37;1797715;80;21246;-58
2021/05/09 11:03:57;;;;;;;5.00;1.60;;;;;;;14.44;37.24;99669.00;1762056;80;20149;-59
2021/05/09 11:06:30;;;;;;;4.37;1.40;;;;;;;14.11;38.09;99625.06;1795053;80;21140;-59
2021/05/09 11:09:01;;;;;;;2.98;1.40;;;;;;;13.87;38.91;99665.55;1794915;78;21574;-58
2021/05/09 11:11:37;;;;;;;2.92;1.20;;;;;;;13.97;39.22;99669.50;1795190;80;21128;-59
2021/05/09 11:14:11;;;;;;;4.37;1.60;;;;;;;14.26;38.91;99652.88;1795053;78;21133;-58
2021/05/09 11:16:59;;;;;;;3.10;1.70;;;;;;;14.17;37.92;99647.60;1794945;78;21140;-59
2021/05/09 11:19:44;;;;;;;2.30;1.30;;;;;;;13.89;38.12;99644.38;1794927;78;21136;-60
2021/05/09 11:22:12;;;;;;;3.40;1.50;;;;;;;13.65;38.65;99641.13;1794859;79;21321;-58
2021/05/09 11:24:41;;;;;;;6.33;1.52;;;;;;;13.51;39.25;99658.29;1794839;78;21306;-59
2021/05/09 11:27:19;;;;;;;2.98;1.30;;;;;;;13.56;39.38;99656.61;1794911;79;21318;-57
2021/05/09 11:29:51;;;;;;;2.25;1.52;;;;;;;13.72;39.20;99660.66;1794141;78;21160;-59
2021/05/09 11:32:21;;;;;;;3.25;1.72;;;;;;;13.99;38.06;99659.60;1794938;80;21152;-59
2021/05/09 11:34:56;;;;;;;2.80;1.35;;;;;;;14.33;36.86;99650.77;1792120;79;21627;-58
2021/05/09 11:37:35;;;;;;;2.47;1.50;;;;;;;14.53;37.00;99653.09;1764672;80;21197;-58
2021/05/09 11:40:07;;;;;;;1.98;1.30;;;;;;;14.54;36.88;99652.66;1788462;80;21154;-58
2021/05/09 11:42:35;;;;;;;2.22;1.07;;;;;;;14.40;36.92;99661.64;1795239;79;21158;-59
2021/05/09 11:45:04;;;;;;;2.42;1.45;;;;;;;14.32;37.46;99659.39;1795189;79;21152;-57
2021/05/09 11:47:34;;;;;;;4.83;1.75;;;;;;;14.28;37.77;99658.95;1795080;79;21165;-60
2021/05/09 11:50:06;;;;;;;;;;;;;;;14.24;37.88;99645.49;1797858;79;21110;-59
2021/05/09 11:52:40;;;;;;;4.22;1.70;;;;;;;14.17;38.54;99654.09;1794068;80;20163;-59
2021/05/09 11:55:16;;;;;;;2.58;1.37;;;;;;;14.13;38.63;99651.91;1821619;79;21142;-60